createdAt,value
2023-04-13T00:00:19.269Z,3.22
2023-04-13T00:01:19.266Z,3.26
2023-04-13T00:02:19.365Z,3.25
2023-04-13T00:03:19.374Z,3.26
2023-04-13T00:04:19.294Z,3.25
2023-04-13T00:05:19.266Z,3.32
2023-04-13T00:06:20.240Z,3.34
2023-04-13T00:07:19.217Z,3.31
2023-04-13T00:08:19.203Z,3.37
2023-04-13T00:09:19.226Z,3.44
2023-04-13T00:10:19.206Z,3.55
2023-04-13T00:11:19.185Z,3.56
2023-04-13T00:12:19.174Z,3.59
2023-04-13T00:13:19.184Z,3.53
2023-04-13T00:14:19.189Z,3.48
2023-04-13T00:15:19.174Z,3.48
2023-04-13T00:16:19.182Z,3.44
2023-04-13T00:17:19.142Z,3.45
2023-04-13T00:18:19.133Z,3.32
2023-04-13T00:19:19.149Z,3.36
2023-04-13T00:20:19.125Z,3.34
2023-04-13T00:21:19.114Z,3.31
2023-04-13T00:22:19.101Z,3.28
2023-04-13T00:23:19.101Z,3.16
2023-04-13T00:24:19.108Z,3.23
2023-04-13T00:25:19.075Z,3.19
2023-04-13T00:26:19.068Z,3.03
2023-04-13T00:27:19.064Z,3.05
2023-04-13T00:28:19.054Z,3.14
2023-04-13T00:29:19.071Z,3.14
2023-04-13T00:30:19.043Z,3.07
2023-04-13T00:31:19.134Z,3.08
2023-04-13T00:32:19.022Z,3.00
2023-04-13T00:33:19.081Z,3.03
2023-04-13T00:34:19.041Z,2.97
2023-04-13T00:35:19.233Z,3.04
2023-04-13T00:36:18.997Z,2.92
2023-04-13T00:37:19.001Z,2.79
2023-04-13T00:38:18.994Z,2.82
2023-04-13T00:39:19.000Z,2.75
2023-04-13T00:40:18.962Z,2.65
2023-04-13T00:41:18.957Z,2.74
2023-04-13T00:42:18.950Z,2.65
2023-04-13T00:43:18.948Z,2.61
2023-04-13T00:44:18.955Z,2.57
2023-04-13T00:45:19.931Z,2.65
2023-04-13T00:46:18.998Z,2.61
2023-04-13T00:47:18.919Z,2.51
2023-04-13T00:48:18.907Z,2.62
2023-04-13T00:49:18.931Z,2.57
2023-04-13T00:50:18.891Z,2.46
2023-04-13T00:51:18.891Z,2.44
2023-04-13T00:52:18.881Z,2.54
2023-04-13T00:53:18.870Z,2.35
2023-04-13T00:54:18.885Z,2.42
2023-04-13T00:55:18.855Z,2.32
2023-04-13T00:56:18.852Z,2.38
2023-04-13T00:57:18.840Z,2.33
2023-04-13T00:58:18.835Z,2.36
2023-04-13T00:59:18.849Z,2.39
2023-04-13T01:00:18.812Z,2.35
2023-04-13T01:01:18.869Z,2.46
2023-04-13T01:02:18.899Z,2.32
2023-04-13T01:03:18.858Z,2.32
2023-04-13T01:04:18.888Z,2.31
2023-04-13T01:05:18.798Z,2.26
2023-04-13T01:06:18.765Z,2.28
2023-04-13T01:07:18.764Z,2.18
2023-04-13T01:08:18.763Z,2.26
2023-04-13T01:09:18.776Z,2.17
2023-04-13T01:10:18.743Z,2.38
2023-04-13T01:11:18.735Z,2.29
2023-04-13T01:12:18.718Z,2.20
2023-04-13T01:13:18.714Z,2.28
2023-04-13T01:14:18.739Z,2.14
2023-04-13T01:15:18.755Z,2.24
2023-04-13T01:16:18.745Z,2.24
2023-04-13T01:17:18.790Z,2.17
2023-04-13T01:18:18.690Z,2.25
2023-04-13T01:19:18.708Z,2.22
2023-04-13T01:20:18.671Z,2.17
2023-04-13T01:21:18.665Z,2.13
2023-04-13T01:22:18.639Z,2.20
2023-04-13T01:23:19.643Z,2.08
2023-04-13T01:24:18.640Z,2.11
2023-04-13T01:25:18.669Z,2.13
2023-04-13T01:26:18.634Z,2.10
2023-04-13T01:27:18.615Z,2.29
2023-04-13T01:28:18.614Z,2.14
2023-04-13T01:29:18.631Z,2.10
2023-04-13T01:30:18.603Z,2.02
2023-04-13T01:31:18.617Z,2.08
2023-04-13T01:32:18.581Z,2.06
2023-04-13T01:33:18.577Z,2.04
2023-04-13T01:34:18.591Z,1.97
2023-04-13T01:35:18.560Z,1.95
2023-04-13T01:36:18.547Z,1.89
2023-04-13T01:37:18.543Z,1.95
2023-04-13T01:38:18.535Z,1.92
2023-04-13T01:39:18.554Z,1.74
2023-04-13T01:40:18.521Z,1.80
2023-04-13T01:41:18.542Z,1.76
2023-04-13T01:42:18.505Z,1.77
2023-04-13T01:43:18.501Z,1.85
2023-04-13T01:44:18.512Z,1.81
2023-04-13T01:45:18.492Z,1.91
2023-04-13T01:46:18.562Z,1.89
2023-04-13T01:47:18.531Z,1.94
2023-04-13T01:48:18.460Z,1.87
2023-04-13T01:49:18.477Z,1.97
2023-04-13T01:50:18.442Z,1.92
2023-04-13T01:51:18.432Z,1.89
2023-04-13T01:52:18.437Z,1.85
2023-04-13T01:53:18.420Z,1.85
2023-04-13T01:54:18.434Z,1.87
2023-04-13T01:55:18.402Z,1.85
2023-04-13T01:56:18.400Z,1.80
2023-04-13T01:57:18.384Z,1.70
2023-04-13T01:58:18.380Z,1.74
2023-04-13T01:59:18.391Z,1.70
2023-04-13T02:00:18.357Z,1.77
2023-04-13T02:01:18.411Z,1.73
2023-04-13T02:02:18.421Z,1.84
2023-04-13T02:03:18.437Z,1.76
2023-04-13T02:04:18.541Z,1.68
2023-04-13T02:05:18.333Z,1.76
2023-04-13T02:06:18.323Z,1.78
2023-04-13T02:07:18.317Z,1.80
2023-04-13T02:08:18.314Z,1.73
2023-04-13T02:09:18.329Z,1.70
2023-04-13T02:10:18.290Z,1.80
2023-04-13T02:11:18.288Z,1.78
2023-04-13T02:12:19.287Z,1.81
2023-04-13T02:13:18.272Z,1.73
2023-04-13T02:14:18.297Z,1.74
2023-04-13T02:15:18.268Z,1.89
2023-04-13T02:16:18.258Z,1.91
2023-04-13T02:17:18.243Z,1.88
2023-04-13T02:18:18.239Z,1.87
2023-04-13T02:19:18.264Z,1.88
2023-04-13T02:20:18.230Z,1.76
2023-04-13T02:21:18.213Z,1.84
2023-04-13T02:22:18.211Z,1.81
2023-04-13T02:23:18.209Z,1.77
2023-04-13T02:24:18.194Z,1.77
2023-04-13T02:25:18.212Z,1.74
2023-04-13T02:26:18.179Z,1.85
2023-04-13T02:27:18.183Z,1.77
2023-04-13T02:28:18.352Z,1.77
2023-04-13T02:29:18.159Z,1.67
2023-04-13T02:30:18.180Z,1.66
2023-04-13T02:31:18.192Z,1.63
2023-04-13T02:32:18.183Z,1.62
2023-04-13T02:33:18.135Z,1.60
2023-04-13T02:34:18.122Z,1.62
2023-04-13T02:35:18.137Z,1.66
2023-04-13T02:36:18.103Z,1.63
2023-04-13T02:37:18.094Z,1.70
2023-04-13T02:38:18.090Z,1.63
2023-04-13T02:39:18.093Z,1.62
2023-04-13T02:40:18.097Z,1.67
2023-04-13T02:41:18.073Z,1.67
2023-04-13T02:42:18.057Z,1.66
2023-04-13T02:43:18.052Z,1.70
2023-04-13T02:44:18.046Z,1.80
2023-04-13T02:45:18.081Z,1.73
2023-04-13T02:46:18.183Z,1.78
2023-04-13T02:47:18.090Z,1.77
2023-04-13T02:48:18.011Z,1.74
2023-04-13T02:49:18.014Z,1.71
2023-04-13T02:50:18.040Z,1.80
2023-04-13T02:51:17.991Z,1.70
2023-04-13T02:52:17.982Z,1.77
2023-04-13T02:53:17.977Z,1.81
2023-04-13T02:54:17.982Z,1.78
2023-04-13T02:55:17.989Z,1.81
2023-04-13T02:56:17.946Z,1.80
2023-04-13T02:57:18.947Z,1.81
2023-04-13T02:58:17.938Z,1.81
2023-04-13T02:59:17.931Z,1.92
2023-04-13T03:00:17.952Z,1.95
2023-04-13T03:01:17.935Z,1.84
2023-04-13T03:02:17.934Z,1.91
2023-04-13T03:03:17.905Z,1.94
2023-04-13T03:04:17.910Z,1.94
2023-04-13T03:05:17.919Z,1.91
2023-04-13T03:06:17.874Z,1.92
2023-04-13T03:07:17.869Z,1.89
2023-04-13T03:08:17.865Z,1.95
2023-04-13T03:09:17.857Z,1.89
2023-04-13T03:10:17.876Z,1.92
2023-04-13T03:11:17.840Z,1.74
2023-04-13T03:12:17.831Z,1.81
2023-04-13T03:13:17.825Z,1.91
2023-04-13T03:14:17.817Z,1.74
2023-04-13T03:15:17.807Z,1.88
2023-04-13T03:16:17.911Z,1.91
2023-04-13T03:17:19.676Z,1.92
2023-04-13T03:18:18.786Z,1.99
2023-04-13T03:19:17.776Z,1.89
2023-04-13T03:20:17.778Z,1.94
2023-04-13T03:21:17.789Z,2.13
2023-04-13T03:22:17.753Z,2.06
2023-04-13T03:23:17.750Z,2.07
2023-04-13T03:24:17.750Z,2.10
2023-04-13T03:25:17.755Z,2.13
2023-04-13T03:26:17.748Z,2.14
2023-04-13T03:27:17.717Z,2.11
2023-04-13T03:28:17.708Z,2.15
2023-04-13T03:29:18.702Z,2.24
2023-04-13T03:30:17.690Z,2.22
2023-04-13T03:31:17.775Z,2.22
2023-04-13T03:32:17.700Z,2.28
2023-04-13T03:33:17.678Z,2.25
2023-04-13T03:34:17.660Z,2.33
2023-04-13T03:35:17.653Z,2.28
2023-04-13T03:36:17.669Z,2.42
2023-04-13T03:37:17.640Z,2.35
2023-04-13T03:38:17.634Z,2.46
2023-04-13T03:39:17.626Z,2.50
2023-04-13T03:40:17.616Z,2.57
2023-04-13T03:41:17.633Z,2.54
2023-04-13T03:42:17.604Z,2.54
2023-04-13T03:43:17.607Z,2.62
2023-04-13T03:44:17.591Z,2.68
2023-04-13T03:45:17.586Z,2.67
2023-04-13T03:46:17.618Z,2.71
2023-04-13T03:47:17.568Z,2.71
2023-04-13T03:48:17.589Z,2.72
2023-04-13T03:49:17.553Z,2.71
2023-04-13T03:50:17.546Z,2.83
2023-04-13T03:51:17.625Z,2.82
2023-04-13T03:52:17.540Z,2.85
2023-04-13T03:53:17.529Z,2.89
2023-04-13T03:54:17.518Z,2.82
2023-04-13T03:55:17.548Z,2.90
2023-04-13T03:56:17.534Z,2.86
2023-04-13T03:57:17.493Z,2.72
2023-04-13T03:58:17.486Z,2.89
2023-04-13T03:59:17.494Z,2.90
2023-04-13T04:00:17.472Z,2.93
2023-04-13T04:01:17.488Z,2.97
2023-04-13T04:02:17.516Z,3.05
2023-04-13T04:03:17.639Z,3.05
2023-04-13T04:04:17.534Z,3.01
2023-04-13T04:05:17.472Z,3.10
2023-04-13T04:06:17.458Z,3.07
2023-04-13T04:07:17.419Z,3.19
2023-04-13T04:08:17.413Z,3.18
2023-04-13T04:09:17.405Z,3.11
2023-04-13T04:10:17.402Z,3.26
2023-04-13T04:11:17.420Z,3.18
2023-04-13T04:12:17.428Z,3.26
2023-04-13T04:13:17.393Z,3.18
2023-04-13T04:14:17.380Z,3.29
2023-04-13T04:15:17.363Z,3.25
2023-04-13T04:16:17.413Z,3.23
2023-04-13T04:17:17.344Z,3.21
2023-04-13T04:18:17.340Z,3.22
2023-04-13T04:19:17.336Z,3.25
2023-04-13T04:20:17.354Z,3.26
2023-04-13T04:21:17.317Z,3.37
2023-04-13T04:22:17.306Z,3.29
2023-04-13T04:23:19.727Z,3.25
2023-04-13T04:24:17.283Z,3.32
2023-04-13T04:25:18.307Z,3.29
2023-04-13T04:26:17.277Z,3.44
2023-04-13T04:27:17.313Z,3.45
2023-04-13T04:28:17.283Z,3.37
2023-04-13T04:29:17.255Z,3.47
2023-04-13T04:30:18.182Z,3.40
2023-04-13T04:31:17.242Z,3.37
2023-04-13T04:32:17.231Z,3.51
2023-04-13T04:33:17.224Z,3.58
2023-04-13T04:34:17.215Z,3.60
2023-04-13T04:35:17.203Z,3.63
2023-04-13T04:36:17.218Z,3.60
2023-04-13T04:37:20.621Z,3.66
2023-04-13T04:38:18.181Z,3.62
2023-04-13T04:39:17.175Z,3.74
2023-04-13T04:40:17.200Z,3.77
2023-04-13T04:41:17.157Z,3.74
2023-04-13T04:42:17.162Z,3.70
2023-04-13T04:43:17.142Z,3.74
2023-04-13T04:44:17.132Z,3.76
2023-04-13T04:45:17.156Z,3.68
2023-04-13T04:46:17.189Z,3.76
2023-04-13T04:47:17.106Z,3.80
2023-04-13T04:48:17.102Z,3.80
2023-04-13T04:49:17.096Z,3.81
2023-04-13T04:50:17.135Z,3.84
2023-04-13T04:51:17.084Z,3.94
2023-04-13T04:52:17.075Z,3.84
2023-04-13T04:53:17.068Z,4.01
2023-04-13T04:54:17.077Z,4.01
2023-04-13T04:55:17.075Z,4.01
2023-04-13T04:56:17.057Z,4.19
2023-04-13T04:57:17.047Z,4.23
2023-04-13T04:58:17.030Z,4.23
2023-04-13T04:59:17.024Z,4.34
2023-04-13T05:00:17.092Z,4.32
2023-04-13T05:01:17.098Z,4.31
2023-04-13T05:02:17.020Z,4.41
2023-04-13T05:03:17.052Z,4.38
2023-04-13T05:04:16.991Z,4.44
2023-04-13T05:05:17.069Z,4.52
2023-04-13T05:06:16.969Z,4.45
2023-04-13T05:07:16.971Z,4.60
2023-04-13T05:08:16.958Z,4.66
2023-04-13T05:09:16.955Z,4.63
2023-04-13T05:10:16.971Z,4.68
2023-04-13T05:11:16.933Z,4.62
2023-04-13T05:12:16.931Z,4.68
2023-04-13T05:13:16.926Z,4.73
2023-04-13T05:14:16.918Z,4.66
2023-04-13T05:15:16.938Z,4.70
2023-04-13T05:16:16.918Z,4.75
2023-04-13T05:17:16.889Z,4.86
2023-04-13T05:18:16.877Z,4.89
2023-04-13T05:19:16.876Z,5.04
2023-04-13T05:20:16.895Z,5.04
2023-04-13T05:21:16.858Z,5.12
2023-04-13T05:22:16.849Z,5.14
2023-04-13T05:23:16.846Z,5.23
2023-04-13T05:24:16.846Z,5.21
2023-04-13T05:25:16.851Z,5.21
2023-04-13T05:26:16.804Z,5.29
2023-04-13T05:27:17.807Z,5.43
2023-04-13T05:28:16.822Z,5.43
2023-04-13T05:29:16.809Z,5.44
2023-04-13T05:30:16.816Z,5.44
2023-04-13T05:31:16.806Z,5.47
2023-04-13T05:32:16.776Z,5.46
2023-04-13T05:33:16.763Z,5.50
2023-04-13T05:34:16.778Z,5.57
2023-04-13T05:35:16.774Z,5.66
2023-04-13T05:36:16.740Z,5.62
2023-04-13T05:37:16.727Z,5.59
2023-04-13T05:38:16.720Z,5.69
2023-04-13T05:39:16.716Z,5.75
2023-04-13T05:40:16.740Z,5.79
2023-04-13T05:41:16.697Z,5.79
2023-04-13T05:42:16.691Z,5.90
2023-04-13T05:43:16.683Z,5.80
2023-04-13T05:44:16.673Z,5.84
2023-04-13T05:45:16.724Z,5.93
2023-04-13T05:46:16.696Z,5.97
2023-04-13T05:47:16.658Z,5.94
2023-04-13T05:48:16.642Z,6.08
2023-04-13T05:49:16.631Z,6.02
2023-04-13T05:50:16.650Z,6.02
2023-04-13T05:51:16.615Z,6.12
2023-04-13T05:52:16.603Z,6.08
2023-04-13T05:53:16.625Z,6.17
2023-04-13T05:54:16.588Z,6.24
2023-04-13T05:55:16.624Z,6.27
2023-04-13T05:56:16.573Z,6.24
2023-04-13T05:57:16.562Z,6.24
2023-04-13T05:58:16.579Z,6.27
2023-04-13T05:59:16.545Z,6.35
2023-04-13T06:00:16.541Z,6.36
2023-04-13T06:01:16.584Z,6.28
2023-04-13T06:02:16.581Z,6.44
2023-04-13T06:03:16.739Z,6.46
2023-04-13T06:04:16.709Z,6.45
2023-04-13T06:05:16.593Z,6.52
2023-04-13T06:06:16.532Z,6.56
2023-04-13T06:07:16.486Z,6.48
2023-04-13T06:08:17.485Z,6.54
2023-04-13T06:09:16.476Z,6.51
2023-04-13T06:10:16.468Z,6.56
2023-04-13T06:11:16.502Z,6.49
2023-04-13T06:12:16.452Z,6.52
2023-04-13T06:13:16.448Z,6.59
2023-04-13T06:14:16.429Z,6.69
2023-04-13T06:15:16.432Z,6.72
2023-04-13T06:16:16.476Z,6.67
2023-04-13T06:17:16.405Z,6.69
2023-04-13T06:18:16.412Z,6.77
2023-04-13T06:19:16.397Z,6.78
2023-04-13T06:20:16.391Z,6.89
2023-04-13T06:21:16.399Z,6.72
2023-04-13T06:22:16.361Z,6.79
2023-04-13T06:23:16.357Z,6.79
2023-04-13T06:24:16.351Z,6.95
2023-04-13T06:25:16.364Z,6.87
2023-04-13T06:26:16.365Z,6.79
2023-04-13T06:27:16.331Z,6.97
2023-04-13T06:28:16.321Z,6.95
2023-04-13T06:29:16.322Z,6.96
2023-04-13T06:30:16.314Z,6.95
2023-04-13T06:31:16.420Z,6.93
2023-04-13T06:32:16.300Z,6.93
2023-04-13T06:33:16.291Z,6.85
2023-04-13T06:34:16.294Z,6.96
2023-04-13T06:35:16.270Z,6.95
2023-04-13T06:36:16.312Z,6.96
2023-04-13T06:37:16.277Z,6.93
2023-04-13T06:38:16.245Z,6.95
2023-04-13T06:39:16.236Z,6.99
2023-04-13T06:40:16.231Z,7.02
2023-04-13T06:41:16.248Z,7.07
2023-04-13T06:42:16.207Z,7.14
2023-04-13T06:43:28.646Z,7.10
2023-04-13T06:44:18.201Z,7.10
2023-04-13T06:45:16.195Z,7.11
2023-04-13T06:46:17.757Z,7.11
2023-04-13T06:47:16.173Z,7.18
2023-04-13T06:48:16.170Z,7.17
2023-04-13T06:49:16.157Z,7.17
2023-04-13T06:50:16.159Z,7.18
2023-04-13T06:51:16.194Z,7.15
2023-04-13T06:52:16.139Z,7.33
2023-04-13T06:53:16.125Z,7.32
2023-04-13T06:54:16.115Z,7.31
2023-04-13T06:55:16.120Z,7.35
2023-04-13T06:56:16.125Z,7.45
2023-04-13T06:57:16.109Z,7.42
2023-04-13T06:58:16.083Z,7.45
2023-04-13T06:59:16.084Z,7.53
2023-04-13T07:00:28.764Z,7.45
2023-04-13T07:01:18.123Z,7.61
2023-04-13T07:02:16.141Z,7.51
2023-04-13T07:03:16.145Z,7.53
2023-04-13T07:04:16.148Z,7.58
2023-04-13T07:05:16.058Z,7.61
2023-04-13T07:06:16.081Z,7.61
2023-04-13T07:07:16.007Z,7.56
2023-04-13T07:08:16.018Z,7.66
2023-04-13T07:09:16.012Z,7.70
2023-04-13T07:10:15.984Z,7.61
2023-04-13T07:11:15.982Z,7.72
2023-04-13T07:12:16.011Z,7.76
2023-04-13T07:13:15.978Z,7.79
2023-04-13T07:14:15.961Z,7.83
2023-04-13T07:15:15.956Z,7.79
2023-04-13T07:16:17.014Z,7.85
2023-04-13T07:17:15.972Z,7.80
2023-04-13T07:18:15.935Z,7.91
2023-04-13T07:19:15.956Z,7.93
2023-04-13T07:20:15.914Z,7.93
2023-04-13T07:21:15.894Z,7.88
2023-04-13T07:22:15.911Z,7.88
2023-04-13T07:23:15.895Z,7.95
2023-04-13T07:24:15.950Z,8.01
2023-04-13T07:25:15.890Z,8.16
2023-04-13T07:26:15.866Z,8.28
2023-04-13T07:27:15.881Z,8.34
2023-04-13T07:28:15.842Z,8.42
2023-04-13T07:29:15.830Z,8.38
2023-04-13T07:30:15.826Z,8.58
2023-04-13T07:31:15.828Z,8.55
2023-04-13T07:32:15.830Z,8.58
2023-04-13T07:33:15.853Z,8.71
2023-04-13T07:34:15.798Z,8.76
2023-04-13T07:35:15.804Z,9.26
2023-04-13T07:36:15.775Z,9.61
2023-04-13T07:37:15.799Z,9.83
2023-04-13T07:38:15.760Z,9.97
2023-04-13T07:39:15.756Z,9.98
2023-04-13T07:40:15.770Z,9.74
2023-04-13T07:41:15.742Z,9.59
2023-04-13T07:42:15.932Z,9.43
2023-04-13T07:43:15.728Z,9.34
2023-04-13T07:44:15.711Z,9.28
2023-04-13T07:45:15.704Z,9.21
2023-04-13T07:46:15.759Z,8.99
2023-04-13T07:47:15.719Z,8.97
2023-04-13T07:48:15.682Z,9.03
2023-04-13T07:49:15.797Z,8.85
2023-04-13T07:50:15.661Z,8.74
2023-04-13T07:51:15.657Z,8.82
2023-04-13T07:52:15.683Z,8.88
2023-04-13T07:53:15.638Z,8.95
2023-04-13T07:54:16.778Z,9.06
2023-04-13T07:55:16.624Z,8.99
2023-04-13T07:56:15.616Z,9.03
2023-04-13T07:57:15.628Z,9.02
2023-04-13T07:58:15.604Z,8.92
2023-04-13T07:59:15.606Z,9.18
2023-04-13T08:00:15.584Z,9.26
2023-04-13T08:01:15.590Z,9.25
2023-04-13T08:02:15.627Z,9.31
2023-04-13T08:03:15.777Z,9.50
2023-04-13T08:04:15.857Z,9.62
2023-04-13T08:05:15.738Z,9.91
2023-04-13T08:06:15.548Z,10.17
2023-04-13T08:07:15.555Z,10.25
2023-04-13T08:08:15.526Z,10.31
2023-04-13T08:09:15.515Z,10.17
2023-04-13T08:10:16.509Z,10.02
2023-04-13T08:11:15.499Z,10.09
2023-04-13T08:12:15.668Z,10.19
2023-04-13T08:13:15.495Z,10.17
2023-04-13T08:14:15.472Z,10.26
2023-04-13T08:15:15.478Z,10.46
2023-04-13T08:16:15.514Z,10.71
2023-04-13T08:17:15.485Z,10.79
2023-04-13T08:18:15.462Z,10.38
2023-04-13T08:19:15.443Z,10.01
2023-04-13T08:20:15.442Z,9.76
2023-04-13T08:21:15.432Z,9.79
2023-04-13T08:22:15.463Z,9.68
2023-04-13T08:23:15.405Z,9.98
2023-04-13T08:24:15.400Z,10.07
2023-04-13T08:25:15.423Z,10.17
2023-04-13T08:26:15.382Z,10.38
2023-04-13T08:27:15.417Z,10.22
2023-04-13T08:28:15.410Z,10.02
2023-04-13T08:29:15.480Z,10.15
2023-04-13T08:30:15.353Z,10.31
2023-04-13T08:31:15.359Z,10.33
2023-04-13T08:32:15.518Z,10.46
2023-04-13T08:33:15.330Z,10.51
2023-04-13T08:34:15.326Z,10.49
2023-04-13T08:35:15.318Z,10.54
2023-04-13T08:36:15.312Z,10.51
2023-04-13T08:37:15.324Z,10.46
2023-04-13T08:38:15.282Z,10.78
2023-04-13T08:39:16.211Z,10.99
2023-04-13T08:40:15.277Z,11.00
2023-04-13T08:41:15.268Z,11.19
2023-04-13T08:42:15.300Z,11.07
2023-04-13T08:43:15.257Z,11.05
2023-04-13T08:44:15.250Z,11.08
2023-04-13T08:45:15.230Z,10.94
2023-04-13T08:46:15.242Z,10.81
2023-04-13T08:47:15.250Z,10.99
2023-04-13T08:48:15.285Z,10.97
2023-04-13T08:49:15.218Z,11.11
2023-04-13T08:50:15.195Z,11.05
2023-04-13T08:51:15.185Z,11.02
2023-04-13T08:52:16.834Z,10.94
2023-04-13T08:53:16.172Z,10.86
2023-04-13T08:54:15.166Z,10.96
2023-04-13T08:55:15.160Z,10.89
2023-04-13T08:56:15.147Z,10.87
2023-04-13T08:57:15.172Z,10.69
2023-04-13T08:58:15.131Z,10.75
2023-04-13T08:59:15.180Z,10.74
2023-04-13T09:00:15.128Z,10.54
2023-04-13T09:01:15.196Z,10.49
2023-04-13T09:02:15.190Z,10.42
2023-04-13T09:03:15.184Z,10.34
2023-04-13T09:04:15.215Z,10.35
2023-04-13T09:05:15.150Z,10.34
2023-04-13T09:06:15.073Z,10.53
2023-04-13T09:07:15.100Z,10.61
2023-04-13T09:08:15.049Z,10.78
2023-04-13T09:09:15.084Z,10.48
2023-04-13T09:10:15.887Z,10.41
2023-04-13T09:11:15.030Z,10.48
2023-04-13T09:12:15.065Z,10.49
2023-04-13T09:13:15.019Z,10.48
2023-04-13T09:14:15.005Z,10.74
2023-04-13T09:15:15.006Z,10.96
2023-04-13T09:16:14.999Z,11.02
2023-04-13T09:17:15.096Z,10.90
2023-04-13T09:18:14.981Z,11.10
2023-04-13T09:19:14.970Z,10.97
2023-04-13T09:20:14.981Z,11.11
2023-04-13T09:21:14.955Z,10.90
2023-04-13T09:22:14.968Z,10.90
2023-04-13T09:23:14.962Z,10.89
2023-04-13T09:24:14.929Z,11.10
2023-04-13T09:25:14.914Z,11.04
2023-04-13T09:26:14.917Z,11.18
2023-04-13T09:27:14.920Z,11.27
2023-04-13T09:28:14.896Z,11.59
2023-04-13T09:29:14.927Z,11.95
2023-04-13T09:30:14.881Z,12.02
2023-04-13T09:31:14.894Z,11.91
2023-04-13T09:32:14.884Z,12.18
2023-04-13T09:33:14.851Z,12.31
2023-04-13T09:34:14.877Z,12.32
2023-04-13T09:35:14.839Z,12.31
2023-04-13T09:36:14.824Z,12.12
2023-04-13T09:37:14.858Z,12.20
2023-04-13T09:38:14.809Z,12.36
2023-04-13T09:39:14.813Z,12.60
2023-04-13T09:40:14.824Z,12.50
2023-04-13T09:41:14.824Z,12.55
2023-04-13T09:42:14.806Z,12.43
2023-04-13T09:43:14.784Z,12.54
2023-04-13T09:44:14.780Z,12.55
2023-04-13T09:45:14.769Z,12.54
2023-04-13T09:46:14.846Z,12.79
2023-04-13T09:47:14.769Z,12.78
2023-04-13T09:48:14.735Z,12.82
2023-04-13T09:49:14.723Z,12.78
2023-04-13T09:50:14.727Z,12.60
2023-04-13T09:51:14.721Z,12.43
2023-04-13T09:52:14.732Z,12.25
2023-04-13T09:53:14.703Z,12.13
2023-04-13T09:54:14.705Z,12.18
2023-04-13T09:55:14.684Z,11.91
2023-04-13T09:56:14.686Z,11.90
2023-04-13T09:57:14.704Z,11.90
2023-04-13T09:58:14.701Z,12.09
2023-04-13T09:59:14.671Z,11.97
2023-04-13T10:00:15.081Z,11.72
2023-04-13T10:01:14.652Z,11.59
2023-04-13T10:02:14.720Z,11.43
2023-04-13T10:03:14.725Z,11.23
2023-04-13T10:04:14.630Z,11.30
2023-04-13T10:05:14.691Z,11.45
2023-04-13T10:06:14.672Z,11.70
2023-04-13T10:07:15.389Z,11.88
2023-04-13T10:08:19.648Z,12.00
2023-04-13T10:09:15.568Z,11.99
2023-04-13T10:10:14.565Z,11.97
2023-04-13T10:11:14.998Z,11.77
2023-04-13T10:12:14.587Z,11.68
2023-04-13T10:13:21.813Z,11.57
2023-04-13T10:14:16.538Z,11.54
2023-04-13T10:15:14.537Z,11.57
2023-04-13T10:16:14.538Z,11.69
2023-04-13T10:17:14.581Z,11.77
2023-04-13T10:18:14.595Z,11.72
2023-04-13T10:19:14.500Z,11.72
2023-04-13T10:20:14.485Z,11.88
2023-04-13T10:21:14.483Z,12.02
2023-04-13T10:22:14.497Z,12.17
2023-04-13T10:23:14.467Z,12.24
2023-04-13T10:24:14.476Z,12.39
2023-04-13T10:25:22.036Z,12.60
2023-04-13T10:26:16.435Z,12.78
2023-04-13T10:27:14.460Z,12.95
2023-04-13T10:28:14.418Z,12.90
2023-04-13T10:29:14.552Z,12.76
2023-04-13T10:30:14.407Z,12.57
2023-04-13T10:31:14.409Z,12.49
2023-04-13T10:32:14.424Z,12.36
2023-04-13T10:33:14.379Z,12.24
2023-04-13T10:34:14.365Z,12.17
2023-04-13T10:35:14.365Z,12.22
2023-04-13T10:36:14.351Z,12.27
2023-04-13T10:37:14.378Z,12.32
2023-04-13T10:38:14.341Z,12.21
2023-04-13T10:39:14.331Z,12.22
2023-04-13T10:40:14.323Z,12.12
2023-04-13T10:41:14.314Z,12.02
2023-04-13T10:42:15.981Z,11.99
2023-04-13T10:43:14.295Z,12.09
2023-04-13T10:44:14.296Z,12.12
2023-04-13T10:45:14.296Z,12.24
2023-04-13T10:46:14.289Z,12.22
2023-04-13T10:47:14.331Z,12.29
2023-04-13T10:48:14.301Z,12.31
2023-04-13T10:49:14.254Z,12.39
2023-04-13T10:50:14.301Z,12.22
2023-04-13T10:51:14.236Z,12.06
2023-04-13T10:52:14.239Z,11.86
2023-04-13T10:53:14.255Z,11.59
2023-04-13T10:54:14.255Z,11.55
2023-04-13T10:55:14.211Z,11.60
2023-04-13T10:56:14.201Z,11.55
2023-04-13T10:57:14.188Z,11.52
2023-04-13T10:58:14.226Z,11.60
2023-04-13T10:59:14.245Z,11.59
2023-04-13T11:00:14.165Z,11.77
2023-04-13T11:01:14.164Z,12.07
2023-04-13T11:02:14.193Z,12.18
2023-04-13T11:03:14.318Z,12.39
2023-04-13T11:04:17.049Z,12.62
2023-04-13T11:05:15.121Z,12.80
2023-04-13T11:06:14.116Z,13.13
2023-04-13T11:07:14.179Z,13.47
2023-04-13T11:08:14.125Z,13.67
2023-04-13T11:09:16.620Z,13.72
2023-04-13T11:10:15.080Z,13.63
2023-04-13T11:11:15.162Z,13.42
2023-04-13T11:12:15.069Z,13.27
2023-04-13T11:13:14.090Z,13.28
2023-04-13T11:14:14.055Z,13.46
2023-04-13T11:15:14.043Z,13.49
2023-04-13T11:16:14.043Z,13.70
2023-04-13T11:17:14.169Z,13.59
2023-04-13T11:18:14.120Z,13.46
2023-04-13T11:19:14.012Z,13.27
2023-04-13T11:20:14.060Z,13.22
2023-04-13T11:21:14.005Z,12.90
2023-04-13T11:22:13.999Z,12.57
2023-04-13T11:23:14.026Z,12.61
2023-04-13T11:24:14.014Z,12.50
2023-04-13T11:25:13.992Z,12.62
2023-04-13T11:26:13.966Z,12.54
2023-04-13T11:27:13.953Z,12.54
2023-04-13T11:28:13.977Z,12.97
2023-04-13T11:29:13.938Z,13.28
2023-04-13T11:30:14.013Z,13.75
2023-04-13T11:31:13.939Z,13.67
2023-04-13T11:32:13.999Z,13.65
2023-04-13T11:33:13.943Z,13.49
2023-04-13T11:34:13.915Z,13.25
2023-04-13T11:35:13.952Z,13.19
2023-04-13T11:36:13.892Z,13.25
2023-04-13T11:37:13.875Z,13.71
2023-04-13T11:38:13.898Z,13.81
2023-04-13T11:39:13.875Z,13.89
2023-04-13T11:40:14.051Z,13.90
2023-04-13T11:41:16.809Z,14.23
2023-04-13T11:42:14.833Z,14.32
2023-04-13T11:43:13.854Z,14.51
2023-04-13T11:44:13.856Z,14.32
2023-04-13T11:45:13.806Z,13.99
2023-04-13T11:46:13.917Z,13.71
2023-04-13T11:47:13.793Z,13.62
2023-04-13T11:48:13.810Z,13.28
2023-04-13T11:49:13.774Z,13.31
2023-04-13T11:50:15.458Z,13.31
2023-04-13T11:51:14.759Z,13.28
2023-04-13T11:52:13.758Z,13.30
2023-04-13T11:53:13.769Z,13.15
2023-04-13T11:54:13.737Z,12.98
2023-04-13T11:55:22.448Z,13.00
2023-04-13T11:56:15.725Z,12.98
2023-04-13T11:57:13.713Z,12.97
2023-04-13T11:58:13.734Z,12.86
2023-04-13T11:59:13.693Z,12.70
2023-04-13T12:00:13.698Z,12.80
2023-04-13T12:01:15.538Z,12.97
2023-04-13T12:02:22.033Z,13.20
2023-04-13T12:03:34.434Z,13.50
2023-04-13T12:04:16.842Z,13.89
2023-04-13T12:05:14.962Z,14.08
2023-04-13T12:06:14.814Z,14.29
2023-04-13T12:07:14.151Z,14.59
2023-04-13T12:08:14.449Z,14.72
2023-04-13T12:09:16.500Z,14.68
2023-04-13T12:10:23.225Z,14.54
2023-04-13T12:11:40.748Z,14.35
2023-04-13T12:12:50.764Z,14.00
2023-04-13T12:13:23.902Z,13.86
2023-04-13T12:14:21.298Z,13.65
2023-04-13T12:15:33.640Z,13.65
2023-04-13T12:16:18.317Z,13.59
2023-04-13T12:17:36.522Z,13.77
2023-04-13T12:18:17.806Z,13.71
2023-04-13T12:19:16.649Z,13.83
2023-04-13T12:20:13.722Z,13.74
2023-04-13T12:21:13.651Z,14.05
2023-04-13T12:22:14.939Z,14.18
2023-04-13T12:23:22.319Z,14.32
2023-04-13T12:24:15.642Z,14.04
2023-04-13T12:25:14.607Z,13.97
2023-04-13T12:26:48.614Z,13.90
2023-04-13T12:27:18.977Z,13.90
2023-04-13T12:28:14.604Z,13.81
2023-04-13T12:29:13.465Z,13.90
2023-04-13T12:30:13.459Z,13.62
2023-04-13T12:31:13.494Z,13.18
2023-04-13T12:32:13.438Z,12.97
2023-04-13T12:33:13.459Z,12.64
2023-04-13T12:34:13.425Z,11.91
2023-04-13T12:35:13.474Z,11.57
2023-04-13T12:36:13.405Z,11.62
2023-04-13T12:37:13.427Z,11.57
2023-04-13T12:38:13.423Z,11.52
2023-04-13T12:39:13.388Z,11.54
2023-04-13T12:40:13.377Z,11.57
2023-04-13T12:41:13.361Z,11.60
2023-04-13T12:42:14.359Z,11.68
2023-04-13T12:43:13.380Z,11.59
2023-04-13T12:44:13.348Z,11.41
2023-04-13T12:45:13.338Z,11.30
2023-04-13T12:46:13.358Z,11.43
2023-04-13T12:47:13.476Z,11.26
2023-04-13T12:48:13.360Z,11.07
2023-04-13T12:49:13.319Z,11.00
2023-04-13T12:50:13.308Z,11.08
2023-04-13T12:51:13.296Z,10.99
2023-04-13T12:52:13.281Z,10.90
2023-04-13T12:53:13.306Z,10.92
2023-04-13T12:54:13.302Z,10.81
2023-04-13T12:55:13.275Z,10.82
2023-04-13T12:56:13.255Z,10.69
2023-04-13T12:57:13.243Z,10.61
2023-04-13T12:58:13.265Z,10.44
2023-04-13T12:59:13.233Z,10.26
2023-04-13T13:00:13.224Z,10.26
2023-04-13T13:01:13.253Z,10.22
2023-04-13T13:02:13.229Z,10.28
2023-04-13T13:03:14.850Z,10.25
2023-04-13T13:04:14.212Z,10.38
2023-04-13T13:05:13.180Z,10.69
2023-04-13T13:06:13.174Z,10.78
2023-04-13T13:07:13.164Z,10.93
2023-04-13T13:08:13.185Z,11.04